Maddy — CQPG — position and weather

sailwx.info

Track history (hours):
 
Tides and Currents Weather Stations Pressure Air Temp Water Temp Dewpoint Dewpoint Depression Visibility Wind Speed Wind Dir Waves Ship Positions

Maddy

Last reported at 2018-Aug-17 11:22 UTC. Time now 2018-Aug-17 11:43 UTC.
Position N 28°56' W 014°26'.

Length 75 m; draft 6.1 m.

Type: Ship. MMSI: 255802440.

Date/timePositionNaut miles runAvg speedWind from/ knotsBaromVisibWave heightAir tempDewpointWater temp
2018-Aug-17 11:22N 28°56' W 014°26'1810.0
2018-Aug-17 09:32N 29°11' W 014°13'1 9.8
2018-Aug-17 09:25N 29°12' W 014°12'4 9.9
2018-Aug-17 09:00N 29°15' W 014°09'510.1
2018-Aug-17 08:30N 29°19' W 014°05'513 9.9
2018-Aug-15 04:43N 36°01' W 007°47'2 9.6
2018-Aug-15 04:31N 36°02' W 007°46'10 9.5
2018-Aug-15 03:24N 36°10' W 007°37'25 9.5
2018-Aug-15 00:46N 36°31' W 007°19'7 9.9
2018-Aug-15 00:01N 36°36' W 007°13'0 9.7
2018-Aug-15 00:00N 36°36' W 007°12'510.2
2018-Aug-14 23:30N 36°40' W 007°08'1410.1
2018-Aug-14 22:07N 36°52' W 006°58'29 0.6
2018-Aug-13 01:33N 36°27' W 007°17'110.3
2018-Aug-13 01:29N 36°27' W 007°18'6 9.9
2018-Aug-13 00:55N 36°22' W 007°21'4 9.8
2018-Aug-13 00:31N 36°19' W 007°24'5 9.8
2018-Aug-13 00:00N 36°15' W 007°28'5 9.8
2018-Aug-12 23:31N 36°11' W 007°32'5 9.7
2018-Aug-12 23:01N 36°07' W 007°35'5 9.8
2018-Aug-12 22:31N 36°02' W 007°37'6 9.6
2018-Aug-12 21:53N 35°57' W 007°41'4 9.4
2018-Aug-12 21:30N 35°54' W 007°44'6 9.4
2018-Aug-12 20:51N 35°49' W 007°48'3 9.6
2018-Aug-12 20:30N 35°47' W 007°51'5 9.4
2018-Aug-12 20:00N 35°43' W 007°54'5 9.2
2018-Aug-12 19:31N 35°39' W 007°57'5 9.1
2018-Aug-12 18:58N 35°35' W 008°01'4 9.2
2018-Aug-12 18:31N 35°32' W 008°04'5 9.2
2018-Aug-12 18:00N 35°28' W 008°07'66 9.1
2018-Aug-12 10:46N 34°33' W 008°52'140 8.8
2018-Aug-11 18:48N 32°37' W 010°27'92 5.8
2018-Aug-11 02:48N 31°21' W 011°27'2 6.8
2018-Aug-11 02:29N 31°19' W 011°29'133 5.9
2018-Aug-10 03:50N 29°29' W 012°55'18 6.6
2018-Aug-10 01:06N 29°14' W 013°07'1 7.3
2018-Aug-10 01:00N 29°13' W 013°07'4 7.3
2018-Aug-10 00:26N 29°10' W 013°10'3 7.0
2018-Aug-10 00:00N 29°08' W 013°12'4 7.4
2018-Aug-09 23:30N 29°05' W 013°15'4 7.3
2018-Aug-09 22:58N 29°02' W 013°18'4 7.6
2018-Aug-09 22:30N 28°60' W 013°21'3 5.7
2018-Aug-09 22:00N 28°57' W 013°23'1 1.7
2018-Aug-09 21:29N 28°57' W 013°23'1 1.9
2018-Aug-09 21:00N 28°56' W 013°24'1 1.9
2018-Aug-09 20:30N 28°55' W 013°25'1 2.0
2018-Aug-09 20:01N 28°55' W 013°26'1 2.2
2018-Aug-09 19:30N 28°54' W 013°27'1 2.1
2018-Aug-09 19:01N 28°53' W 013°27'0 0.4
2018-Aug-09 18:31N 28°53' W 013°27'1 1.8
2018-Aug-09 18:00N 28°54' W 013°27'1 2.0
2018-Aug-09 17:31N 28°54' W 013°28'1 2.1
2018-Aug-09 17:00N 28°53' W 013°29'1 2.0
2018-Aug-09 16:30N 28°52' W 013°29'1 2.0
2018-Aug-09 16:00N 28°52' W 013°30'1 1.8
2018-Aug-09 15:30N 28°51' W 013°31'1 1.7
2018-Aug-09 15:01N 28°50' W 013°32'1 1.8
2018-Aug-09 14:30N 28°50' W 013°33'1 1.8
2018-Aug-09 14:00N 28°51' W 013°32'1 2.1
2018-Aug-09 13:31N 28°51' W 013°31'1 2.1
2018-Aug-09 13:01N 28°52' W 013°30'1 1.9
2018-Aug-09 12:31N 28°53' W 013°29'1 2.0
2018-Aug-09 12:01N 28°53' W 013°29'1 1.8
2018-Aug-09 11:31N 28°54' W 013°28'1 1.9
2018-Aug-09 10:58N 28°55' W 013°27'1 1.8
2018-Aug-09 10:31N 28°55' W 013°27'2 3.3
2018-Aug-09 10:00N 28°56' W 013°28'2 4.3
2018-Aug-09 09:30N 28°57' W 013°30'1 0.1
2018-Aug-08 19:16N 28°58' W 013°32'0 0.0
2018-Aug-08 18:34N 28°58' W 013°32'0 0.1
2018-Aug-08 18:28N 28°58' W 013°32'0 0.0
2018-Aug-08 17:16N 28°58' W 013°32'0 0.0
2018-Aug-08 16:46N 28°58' W 013°32'0 0.0
2018-Aug-08 16:22N 28°58' W 013°32'0 0.0
2018-Aug-08 16:00N 28°58' W 013°32'0 0.0
2018-Aug-08 15:31N 28°58' W 013°32'0 0.0
2018-Aug-08 15:00N 28°58' W 013°32'0 0.0
2018-Aug-08 14:31N 28°58' W 013°32'0 0.0
2018-Aug-08 13:59N 28°58' W 013°32'0 0.0
2018-Aug-08 13:30N 28°58' W 013°32'0 0.0
2018-Aug-08 13:00N 28°58' W 013°32'0 0.0
2018-Aug-08 12:30N 28°58' W 013°32'0 0.2
2018-Aug-08 12:00N 28°58' W 013°32'2 4.9
2018-Aug-08 11:30N 28°56' W 013°33'3 5.9
2018-Aug-08 11:00N 28°53' W 013°34'3 6.0
2018-Aug-08 10:30N 28°50' W 013°36'3 6.0
2018-Aug-08 10:01N 28°48' W 013°38'3 6.0
2018-Aug-08 09:30N 28°45' W 013°39'3 6.0
2018-Aug-08 09:00N 28°43' W 013°41'3 5.8
2018-Aug-08 08:29N 28°40' W 013°42'3 5.6
2018-Aug-08 08:00N 28°38' W 013°44'3 5.7
2018-Aug-08 07:30N 28°35' W 013°45'3 5.9
2018-Aug-08 07:00N 28°32' W 013°47'3 5.9
2018-Aug-08 06:30N 28°30' W 013°49'5 0.3
2018-Aug-07 13:56N 28°25' W 013°49'13 6.3
2018-Aug-07 11:52N 28°13' W 013°53'2 5.9
2018-Aug-07 11:29N 28°12' W 013°55'  
Track history (hours):
 
Tides and Currents Weather Stations Pressure Air Temp Water Temp Dewpoint Dewpoint Depression Visibility Wind Speed Wind Dir Waves Ship Positions

Maddy

Last reported at 2018-Aug-17 11:22 UTC. Time now 2018-Aug-17 11:43 UTC.
Position N 28°56' W 014°26'.

Length 75 m; draft 6.1 m.

Type: Ship. MMSI: 255802440.

Date/timePositionNaut miles runAvg speedWind from/ knotsBaromVisibWave heightAir tempDewpointWater temp
2018-Aug-17 11:22N 28°56' W 014°26'1810.0
2018-Aug-17 09:32N 29°11' W 014°13'1 9.8
2018-Aug-17 09:25N 29°12' W 014°12'4 9.9
2018-Aug-17 09:00N 29°15' W 014°09'510.1
2018-Aug-17 08:30N 29°19' W 014°05'513 9.9
2018-Aug-15 04:43N 36°01' W 007°47'2 9.6
2018-Aug-15 04:31N 36°02' W 007°46'10 9.5
2018-Aug-15 03:24N 36°10' W 007°37'25 9.5
2018-Aug-15 00:46N 36°31' W 007°19'7 9.9
2018-Aug-15 00:01N 36°36' W 007°13'0 9.7
2018-Aug-15 00:00N 36°36' W 007°12'510.2
2018-Aug-14 23:30N 36°40' W 007°08'1410.1
2018-Aug-14 22:07N 36°52' W 006°58'29 0.6
2018-Aug-13 01:33N 36°27' W 007°17'110.3
2018-Aug-13 01:29N 36°27' W 007°18'6 9.9
2018-Aug-13 00:55N 36°22' W 007°21'4 9.8
2018-Aug-13 00:31N 36°19' W 007°24'5 9.8
2018-Aug-13 00:00N 36°15' W 007°28'5 9.8
2018-Aug-12 23:31N 36°11' W 007°32'5 9.7
2018-Aug-12 23:01N 36°07' W 007°35'5 9.8
2018-Aug-12 22:31N 36°02' W 007°37'6 9.6
2018-Aug-12 21:53N 35°57' W 007°41'4 9.4
2018-Aug-12 21:30N 35°54' W 007°44'6 9.4
2018-Aug-12 20:51N 35°49' W 007°48'3 9.6
2018-Aug-12 20:30N 35°47' W 007°51'5 9.4
2018-Aug-12 20:00N 35°43' W 007°54'5 9.2
2018-Aug-12 19:31N 35°39' W 007°57'5 9.1
2018-Aug-12 18:58N 35°35' W 008°01'4 9.2
2018-Aug-12 18:31N 35°32' W 008°04'5 9.2
2018-Aug-12 18:00N 35°28' W 008°07'66 9.1
2018-Aug-12 10:46N 34°33' W 008°52'140 8.8
2018-Aug-11 18:48N 32°37' W 010°27'92 5.8
2018-Aug-11 02:48N 31°21' W 011°27'2 6.8
2018-Aug-11 02:29N 31°19' W 011°29'133 5.9
2018-Aug-10 03:50N 29°29' W 012°55'18 6.6
2018-Aug-10 01:06N 29°14' W 013°07'1 7.3
2018-Aug-10 01:00N 29°13' W 013°07'4 7.3
2018-Aug-10 00:26N 29°10' W 013°10'3 7.0
2018-Aug-10 00:00N 29°08' W 013°12'4 7.4
2018-Aug-09 23:30N 29°05' W 013°15'4 7.3
2018-Aug-09 22:58N 29°02' W 013°18'4 7.6
2018-Aug-09 22:30N 28°60' W 013°21'3 5.7
2018-Aug-09 22:00N 28°57' W 013°23'1 1.7
2018-Aug-09 21:29N 28°57' W 013°23'1 1.9
2018-Aug-09 21:00N 28°56' W 013°24'1 1.9
2018-Aug-09 20:30N 28°55' W 013°25'1 2.0
2018-Aug-09 20:01N 28°55' W 013°26'1 2.2
2018-Aug-09 19:30N 28°54' W 013°27'1 2.1
2018-Aug-09 19:01N 28°53' W 013°27'0 0.4
2018-Aug-09 18:31N 28°53' W 013°27'1 1.8
2018-Aug-09 18:00N 28°54' W 013°27'1 2.0
2018-Aug-09 17:31N 28°54' W 013°28'1 2.1
2018-Aug-09 17:00N 28°53' W 013°29'1 2.0
2018-Aug-09 16:30N 28°52' W 013°29'1 2.0
2018-Aug-09 16:00N 28°52' W 013°30'1 1.8
2018-Aug-09 15:30N 28°51' W 013°31'1 1.7
2018-Aug-09 15:01N 28°50' W 013°32'1 1.8
2018-Aug-09 14:30N 28°50' W 013°33'1 1.8
2018-Aug-09 14:00N 28°51' W 013°32'1 2.1
2018-Aug-09 13:31N 28°51' W 013°31'1 2.1
2018-Aug-09 13:01N 28°52' W 013°30'1 1.9
2018-Aug-09 12:31N 28°53' W 013°29'1 2.0
2018-Aug-09 12:01N 28°53' W 013°29'1 1.8
2018-Aug-09 11:31N 28°54' W 013°28'1 1.9
2018-Aug-09 10:58N 28°55' W 013°27'1 1.8
2018-Aug-09 10:31N 28°55' W 013°27'2 3.3
2018-Aug-09 10:00N 28°56' W 013°28'2 4.3
2018-Aug-09 09:30N 28°57' W 013°30'1 0.1
2018-Aug-08 19:16N 28°58' W 013°32'0 0.0
2018-Aug-08 18:34N 28°58' W 013°32'0 0.1
2018-Aug-08 18:28N 28°58' W 013°32'0 0.0
2018-Aug-08 17:16N 28°58' W 013°32'0 0.0
2018-Aug-08 16:46N 28°58' W 013°32'0 0.0
2018-Aug-08 16:22N 28°58' W 013°32'0 0.0
2018-Aug-08 16:00N 28°58' W 013°32'0 0.0
2018-Aug-08 15:31N 28°58' W 013°32'0 0.0
2018-Aug-08 15:00N 28°58' W 013°32'0 0.0
2018-Aug-08 14:31N 28°58' W 013°32'0 0.0
2018-Aug-08 13:59N 28°58' W 013°32'0 0.0
2018-Aug-08 13:30N 28°58' W 013°32'0 0.0
2018-Aug-08 13:00N 28°58' W 013°32'0 0.0
2018-Aug-08 12:30N 28°58' W 013°32'0 0.2
2018-Aug-08 12:00N 28°58' W 013°32'2 4.9
2018-Aug-08 11:30N 28°56' W 013°33'3 5.9
2018-Aug-08 11:00N 28°53' W 013°34'3 6.0
2018-Aug-08 10:30N 28°50' W 013°36'3 6.0
2018-Aug-08 10:01N 28°48' W 013°38'3 6.0
2018-Aug-08 09:30N 28°45' W 013°39'3 6.0
2018-Aug-08 09:00N 28°43' W 013°41'3 5.8
2018-Aug-08 08:29N 28°40' W 013°42'3 5.6
2018-Aug-08 08:00N 28°38' W 013°44'3 5.7
2018-Aug-08 07:30N 28°35' W 013°45'3 5.9
2018-Aug-08 07:00N 28°32' W 013°47'3 5.9
2018-Aug-08 06:30N 28°30' W 013°49'5 0.3
2018-Aug-07 13:56N 28°25' W 013°49'13 6.3
2018-Aug-07 11:52N 28°13' W 013°53'2 5.9
2018-Aug-07 11:29N 28°12' W 013°55'  

Dump ship's entire track history